createdAt,value
2022-08-26T00:09:22.491Z,67
2022-08-26T00:19:24.489Z,68
2022-08-26T00:29:26.811Z,69
2022-08-26T00:39:28.906Z,69
2022-08-26T00:49:31.235Z,68
2022-08-26T00:59:33.276Z,69
2022-08-26T01:09:35.609Z,70
2022-08-26T01:19:37.805Z,69
2022-08-26T01:39:52.471Z,69
2022-08-26T01:49:54.767Z,68
2022-08-26T01:59:56.584Z,69
2022-08-26T02:09:59.189Z,69
2022-08-26T02:20:01.612Z,72
2022-08-26T02:40:06.158Z,74
2022-08-26T02:50:07.976Z,75
2022-08-26T03:00:10.092Z,75
2022-08-26T03:20:13.801Z,76
2022-08-26T03:30:16.284Z,77
2022-08-26T03:40:20.173Z,79
2022-08-26T03:50:22.764Z,81
2022-08-26T04:00:22.534Z,84
2022-08-26T04:10:26.387Z,85
2022-08-26T04:30:28.944Z,89
2022-08-26T04:40:31.520Z,90
2022-08-26T05:00:35.786Z,95
2022-08-26T05:20:41.041Z,98
2022-08-26T05:40:45.000Z,97
2022-08-26T05:50:46.912Z,97
2022-08-26T06:00:49.339Z,98
2022-08-26T06:40:59.344Z,92
2022-08-26T06:50:59.853Z,91
2022-08-26T07:01:03.833Z,89
2022-08-26T07:11:04.267Z,89
2022-08-26T07:31:09.574Z,86
2022-08-26T07:41:10.349Z,86
2022-08-26T07:51:12.196Z,87
2022-08-26T08:01:14.399Z,85
2022-08-26T08:11:16.003Z,85
2022-08-26T08:21:21.514Z,84
2022-08-26T08:31:33.212Z,83
2022-08-26T08:41:21.713Z,83
2022-08-26T08:51:24.127Z,82
2022-08-26T09:01:26.171Z,82
2022-08-26T09:11:28.650Z,82
2022-08-26T09:21:31.173Z,83
2022-08-26T09:31:32.870Z,83
2022-08-26T09:41:35.692Z,83
2022-08-26T09:51:37.289Z,83
2022-08-26T10:01:40.016Z,82
2022-08-26T10:11:41.974Z,80
2022-08-26T10:21:44.389Z,78
2022-08-26T10:31:46.777Z,77
2022-08-26T10:41:48.428Z,76
2022-08-26T10:51:51.028Z,76
2022-08-26T11:11:55.331Z,76
2022-08-26T11:52:03.608Z,74
2022-08-26T12:02:05.722Z,73
2022-08-26T12:12:08.356Z,72
2022-08-26T12:22:10.987Z,71
2022-08-26T12:32:12.995Z,71
2022-08-26T13:02:20.259Z,69
2022-08-26T13:12:22.486Z,69
2022-08-26T13:22:24.440Z,70
2022-08-26T13:32:27.441Z,69
2022-08-26T13:42:28.349Z,69
2022-08-26T13:52:31.185Z,68
2022-08-26T14:52:44.003Z,69
2022-08-26T15:12:48.206Z,70
2022-08-26T15:22:50.828Z,70
2022-08-26T15:32:52.847Z,70
2022-08-26T15:43:06.093Z,71
2022-08-26T15:52:57.185Z,73
2022-08-26T16:02:59.343Z,74
2022-08-26T16:13:01.602Z,74
2022-08-26T16:23:03.655Z,75
2022-08-26T16:33:05.369Z,76
2022-08-26T16:43:07.262Z,76
2022-08-26T17:03:12.561Z,76
2022-08-26T17:13:17.974Z,76
2022-08-26T17:23:16.515Z,76
2022-08-26T17:33:21.437Z,76
2022-08-26T17:53:22.303Z,76
2022-08-26T18:03:24.695Z,76
2022-08-26T18:13:27.299Z,76
2022-08-26T18:23:29.408Z,76
2022-08-26T18:33:31.213Z,76
2022-08-26T18:43:33.631Z,76
2022-08-26T18:53:36.254Z,76
2022-08-26T19:03:37.965Z,77
2022-08-26T19:13:40.570Z,78
2022-08-26T19:23:42.232Z,79
2022-08-26T19:33:44.870Z,79
2022-08-26T19:43:47.366Z,80
2022-08-26T19:53:49.114Z,81
2022-08-26T20:03:51.460Z,82
2022-08-26T20:13:53.326Z,84
2022-08-26T20:23:55.492Z,84
2022-08-26T20:44:00.164Z,84
2022-08-26T20:54:02.628Z,85
2022-08-26T21:04:04.690Z,87
2022-08-26T21:14:16.329Z,89
2022-08-26T21:34:10.745Z,95
2022-08-26T21:44:12.425Z,98
2022-08-26T21:54:14.912Z,100
2022-08-26T22:04:17.399Z,100
2022-08-26T22:14:19.161Z,100
2022-08-26T22:24:21.725Z,100
2022-08-26T22:34:24.186Z,100
2022-08-26T22:44:26.521Z,100
2022-08-26T22:54:28.450Z,100
2022-08-26T23:04:30.493Z,100
2022-08-26T23:14:32.321Z,100
2022-08-26T23:24:34.417Z,100
2022-08-26T23:34:36.643Z,100
2022-08-26T23:44:38.811Z,100
2022-08-26T23:54:40.644Z,100
